Seville, Florida
Current Conditions -  °F | °C
As of 9:55 AM on Thursday 18 Dec 2014 (Local Time) from KOMN Reporting Station
Clear Clear  
Wind Chill: 63°   Ceiling: Unl
Heat Index: 63°   Visibility: 10mi
Dew Point: 45°   Wind: 7mph
Humidity: 52%   Direction: 300°WNW
Pressure: 30.19"   Gusts: NA
Location:  29.32°N, 81.49°W
Report Text: KOMN 181455Z 30006KT 10SM SKC 17/07 A3019
Loading
Personal Weather Stations






























Interactive Weather Map New forecast layout! Learn more

10-Day Weather Forecast

Advertisements
Track Severe Weather on mobile